Time;durP1;ratioP1;P1;durP2;ratioP2;P2;SDS_P1;SDS_P2;PMS_P1;PMS_P2;Temp;Humidity;BMP_temperature;BMP_pressure;BME280_temperature;BME280_humidity;BME280_pressure;Samples;Min_cycle;Max_cycle;Signal;HPM_P1;HPM_P2
2022/08/08 00:00:18;;;;;;;7.88;2.63;;;15.10;99.90;;;;;;5041895;28;28799;-65
2022/08/08 00:03:18;;;;;;;8.70;2.95;;;15.10;99.90;;;;;;5021764;28;212823;-65
2022/08/08 00:06:00;;;;;;;8.27;2.90;;;15.10;99.90;;;;;;4976304;28;219180;-66
2022/08/08 00:08:49;;;;;;;8.15;3.10;;;15.10;99.90;;;;;;5030751;28;272318;-66
2022/08/08 00:11:39;;;;;;;8.63;2.90;;;15.10;99.90;;;;;;4999455;28;206418;-65
2022/08/08 00:14:12;;;;;;;8.53;2.70;;;15.00;99.90;;;;;;5035061;28;227480;-65
2022/08/08 00:16:55;;;;;;;8.15;2.92;;;15.00;99.90;;;;;;5008386;28;210769;-65
2022/08/08 00:19:48;;;;;;;9.20;3.17;;;15.00;99.90;;;;;;5053867;28;146258;-66
2022/08/08 00:22:27;;;;;;;9.15;3.05;;;14.90;99.90;;;;;;5014565;28;205558;-66
2022/08/08 00:25:05;;;;;;;9.80;3.40;;;14.90;99.90;;;;;;5036820;28;158082;-66
2022/08/08 00:27:34;;;;;;;9.80;3.10;;;14.90;99.90;;;;;;5009607;28;201459;-66
2022/08/08 00:30:06;;;;;;;9.57;3.33;;;14.90;99.90;;;;;;5057619;28;78194;-65
2022/08/08 00:32:46;;;;;;;12.48;3.10;;;14.80;99.90;;;;;;5018261;28;213091;-65
2022/08/08 00:35:21;;;;;;;9.15;3.38;;;14.80;99.90;;;;;;5037182;28;184822;-65
2022/08/08 00:38:11;;;;;;;8.95;3.20;;;14.70;99.90;;;;;;5022645;28;208106;-65
2022/08/08 00:40:37;;;;;;;8.32;3.65;;;14.70;99.90;;;;;;5026497;28;215283;-65
2022/08/08 00:43:28;;;;;;;10.25;3.47;;;14.60;99.90;;;;;;5050529;28;97120;-64
2022/08/08 00:46:11;;;;;;;10.13;3.40;;;14.60;99.90;;;;;;4985562;28;208511;-65
2022/08/08 00:48:40;;;;;;;10.90;3.95;;;14.50;99.90;;;;;;5051911;28;265226;-65
2022/08/08 00:51:38;;;;;;;12.55;4.00;;;14.50;99.90;;;;;;5015665;28;185409;-65
2022/08/08 00:54:41;;;;;;;11.23;4.28;;;14.40;99.90;;;;;;5059257;28;101643;-65
2022/08/08 00:57:39;;;;;;;11.82;4.25;;;14.40;99.90;;;;;;5020426;28;206929;-65
2022/08/08 01:00:13;;;;;;;10.00;4.35;;;14.40;99.90;;;;;;5072778;28;181221;-66
2022/08/08 01:03:10;;;;;;;11.15;4.45;;;14.40;99.90;;;;;;5008040;28;206909;-65
2022/08/08 01:06:12;;;;;;;9.35;4.30;;;14.40;99.90;;;;;;5009383;28;211937;-64
2022/08/08 01:08:56;;;;;;;9.93;4.20;;;14.40;99.90;;;;;;5022913;28;30665;-64
2022/08/08 01:11:28;;;;;;;9.50;4.53;;;14.30;99.90;;;;;;5024145;28;206512;-65
2022/08/08 01:14:44;;;;;;;10.70;4.20;;;14.30;99.90;;;;;;5032665;28;126142;-65
2022/08/08 01:17:16;;;;;;;9.23;3.65;;;14.30;99.90;;;;;;4950334;28;206052;-65
2022/08/08 01:19:48;;;;;;;10.73;4.35;;;14.20;99.90;;;;;;4974918;28;233704;-66
2022/08/08 01:22:56;;;;;;;10.68;3.83;;;14.20;99.90;;;;;;4981134;28;206365;-65
2022/08/08 01:25:28;;;;;;;7.63;3.53;;;14.10;99.90;;;;;;5016076;28;56088;-65
2022/08/08 01:28:28;;;;;;;8.75;3.90;;;14.10;99.90;;;;;;4952328;28;210546;-65
2022/08/08 01:31:13;;;;;;;10.38;3.78;;;14.10;99.90;;;;;;4939816;28;208563;-65
2022/08/08 01:34:03;;;;;;;8.20;3.40;;;14.00;99.90;;;;;;4981641;28;106092;-65
2022/08/08 01:37:00;;;;;;;8.05;3.03;;;14.00;99.90;;;;;;4979075;28;147458;-65
2022/08/08 01:39:55;;;;;;;7.85;3.20;;;14.00;99.90;;;;;;4980531;28;138673;-65
2022/08/08 01:42:43;;;;;;;9.38;3.00;;;14.00;99.90;;;;;;4981302;28;206093;-65
2022/08/08 01:45:42;;;;;;;8.55;2.65;;;14.00;99.90;;;;;;4982247;28;64492;-65
2022/08/08 01:48:34;;;;;;;9.10;3.10;;;14.00;99.90;;;;;;4971059;28;99753;-65
2022/08/08 01:51:21;;;;;;;7.50;2.78;;;14.00;99.90;;;;;;4997854;28;206484;-64
2022/08/08 01:54:09;;;;;;;8.10;3.05;;;14.00;99.90;;;;;;5038414;28;194396;-65
2022/08/08 01:57:09;;;;;;;10.25;3.20;;;14.00;99.90;;;;;;5027286;28;205232;-65
2022/08/08 01:59:57;;;;;;;9.80;3.57;;;13.90;99.90;;;;;;4963635;28;72347;-65
2022/08/08 02:02:56;;;;;;;7.45;3.03;;;13.90;99.90;;;;;;4943366;28;208348;-65
2022/08/08 02:05:35;;;;;;;8.10;3.28;;;13.90;99.90;;;;;;4947327;28;143867;-65
2022/08/08 02:08:35;;;;;;;8.25;3.35;;;13.90;99.90;;;;;;4933548;28;204312;-65
2022/08/08 02:11:19;;;;;;;9.40;3.25;;;13.90;99.90;;;;;;4917259;28;206676;-65
2022/08/08 02:14:22;;;;;;;8.20;3.78;;;13.80;99.90;;;;;;4960120;28;20936;-65
2022/08/08 02:17:25;;;;;;;7.53;3.15;;;13.80;99.90;;;;;;4931178;28;205887;-65
2022/08/08 02:19:56;;;;;;;8.88;4.03;;;13.80;99.90;;;;;;4949864;28;30475;-65
2022/08/08 02:22:43;;;;;;;9.25;3.35;;;13.80;99.90;;;;;;4942911;28;173322;-64
2022/08/08 02:25:14;;;;;;;10.00;3.60;;;13.80;99.90;;;;;;4976545;28;155177;-65
2022/08/08 02:28:05;;;;;;;9.70;3.97;;;13.80;99.90;;;;;;4955454;28;50267;-65
2022/08/08 02:30:45;;;;;;;8.75;3.50;;;13.80;99.90;;;;;;4972272;28;241912;-65
2022/08/08 02:33:11;;;;;;;8.75;3.60;;;13.70;99.90;;;;;;4953249;28;207831;-65
2022/08/08 02:35:52;;;;;;;9.80;3.97;;;13.70;99.90;;;;;;4962111;28;212616;-64
2022/08/08 02:38:38;;;;;;;8.45;3.17;;;13.70;99.90;;;;;;5029317;28;273068;-64
2022/08/08 02:41:39;;;;;;;7.57;3.22;;;13.70;99.90;;;;;;4943839;28;205457;-63
2022/08/08 02:44:32;;;;;;;9.00;3.28;;;13.70;99.90;;;;;;4903676;29;20066;-64
2022/08/08 02:47:29;;;;;;;9.57;3.08;;;13.70;99.90;;;;;;4866518;29;210263;-65
2022/08/08 02:50:13;;;;;;;10.82;4.45;;;13.70;99.90;;;;;;4900434;29;114798;-66
2022/08/08 02:53:16;;;;;;;8.93;3.55;;;13.70;99.90;;;;;;4857718;29;209987;-65
2022/08/08 02:56:14;;;;;;;8.93;4.10;;;13.60;99.90;;;;;;4861838;28;210095;-65
2022/08/08 02:59:17;;;;;;;8.02;3.53;;;13.60;99.90;;;;;;4903275;29;42305;-65
2022/08/08 03:02:05;;;;;;;7.72;3.30;;;13.60;99.90;;;;;;4849575;29;209649;-65
2022/08/08 03:04:49;;;;;;;10.38;4.18;;;13.60;99.90;;;;;;4897504;29;184743;-65
2022/08/08 03:07:43;;;;;;;9.05;4.43;;;13.50;99.90;;;;;;4862932;29;212966;-65
2022/08/08 03:10:46;;;;;;;11.00;4.45;;;13.50;99.90;;;;;;4917091;28;79025;-64
2022/08/08 03:13:40;;;;;;;8.77;4.50;;;13.50;99.90;;;;;;4872059;29;206144;-65
2022/08/08 03:16:29;;;;;;;9.80;4.25;;;13.50;99.90;;;;;;4860178;29;208153;-64
2022/08/08 03:19:15;;;;;;;9.88;4.03;;;13.50;99.90;;;;;;4919716;28;123518;-64
2022/08/08 03:21:41;;;;;;;10.65;5.30;;;13.50;99.90;;;;;;4997420;28;210177;-64
2022/08/08 03:24:08;;;;;;;11.73;5.35;;;13.50;99.90;;;;;;5029870;28;173513;-65
2022/08/08 03:26:42;;;;;;;9.95;4.70;;;13.50;99.90;;;;;;5003243;28;206741;-64
2022/08/08 03:29:16;;;;;;;10.02;4.43;;;13.50;99.90;;;;;;5041949;28;34120;-64
2022/08/08 03:34:27;;;;;;;12.95;4.82;;;13.50;99.90;;;;;;5049100;28;27124;-65
2022/08/08 03:36:54;;;;;;;11.10;4.40;;;13.60;99.90;;;;;;4976319;28;217335;-64
2022/08/08 03:39:20;;;;;;;10.73;4.47;;;13.60;99.90;;;;;;5041271;28;47920;-64
2022/08/08 03:41:46;;;;;;;10.43;4.40;;;13.60;99.90;;;;;;5008090;28;211103;-65
2022/08/08 03:44:12;;;;;;;8.95;4.40;;;13.60;99.90;;;;;;5057955;28;56828;-64
2022/08/08 03:46:49;;;;;;;9.70;4.07;;;13.60;99.90;;;;;;5005313;28;206225;-65
2022/08/08 03:49:18;;;;;;;10.05;4.10;;;13.60;99.90;;;;;;5035146;28;229921;-65
2022/08/08 03:51:44;;;;;;;10.65;4.53;;;13.60;99.90;;;;;;5009325;28;207413;-64
2022/08/08 03:54:10;;;;;;;13.55;4.50;;;13.60;99.90;;;;;;5036416;28;186134;-64
2022/08/08 03:56:37;;;;;;;9.07;4.05;;;13.60;99.90;;;;;;5006134;28;206122;-64
2022/08/08 03:59:03;;;;;;;8.95;3.90;;;13.50;99.90;;;;;;5039864;28;67216;-64
2022/08/08 04:01:38;;;;;;;9.13;3.70;;;13.50;99.90;;;;;;5004337;28;206425;-64
2022/08/08 04:04:04;;;;;;;10.18;3.50;;;13.50;99.90;;;;;;5024721;28;165758;-65
2022/08/08 04:06:31;;;;;;;8.95;3.40;;;13.50;99.90;;;;;;5017570;28;134064;-64
2022/08/08 04:09:00;;;;;;;10.15;3.78;;;13.40;99.90;;;;;;5041461;28;48795;-64
2022/08/08 04:11:26;;;;;;;7.93;3.65;;;13.40;99.90;;;;;;5006564;28;206080;-64
2022/08/08 04:13:52;;;;;;;9.32;3.88;;;13.40;99.90;;;;;;5035925;28;189566;-64
2022/08/08 04:16:19;;;;;;;12.02;4.00;;;13.40;99.90;;;;;;5005259;28;207377;-64
2022/08/08 04:18:47;;;;;;;10.32;4.57;;;13.40;99.90;;;;;;5035881;28;194699;-64
2022/08/08 04:21:17;;;;;;;10.68;4.40;;;13.30;99.90;;;;;;5003210;28;207958;-64
2022/08/08 04:23:43;;;;;;;9.48;4.55;;;13.30;99.90;;;;;;5054753;28;195401;-66
2022/08/08 04:26:09;;;;;;;10.88;4.60;;;13.30;99.90;;;;;;5011083;28;209373;-64
2022/08/08 04:28:36;;;;;;;9.52;4.70;;;13.20;99.90;;;;;;5036056;28;261500;-64
2022/08/08 04:31:02;;;;;;;12.13;4.35;;;13.30;99.90;;;;;;5011817;28;202125;-64
2022/08/08 04:33:28;;;;;;;9.02;3.97;;;13.30;99.90;;;;;;5034072;28;273028;-65
2022/08/08 04:35:54;;;;;;;10.57;4.28;;;13.30;99.90;;;;;;5021095;28;210041;-65
2022/08/08 04:38:20;;;;;;;10.15;3.83;;;13.30;99.90;;;;;;5033764;28;264714;-65
2022/08/08 04:40:46;;;;;;;9.57;4.57;;;13.30;99.90;;;;;;5019690;28;218071;-64
2022/08/08 04:43:13;;;;;;;8.75;3.97;;;13.40;99.90;;;;;;5069997;28;20052;-64
2022/08/08 04:45:39;;;;;;;9.07;3.90;;;13.40;99.90;;;;;;5005172;28;211142;-65
2022/08/08 04:48:05;;;;;;;9.73;3.80;;;13.40;99.90;;;;;;5019176;28;210769;-65
2022/08/08 04:50:31;;;;;;;8.98;4.05;;;13.40;99.90;;;;;;5043639;28;28801;-65
2022/08/08 04:52:57;;;;;;;11.80;4.65;;;13.40;99.90;;;;;;5011332;28;176452;-65
2022/08/08 04:55:23;;;;;;;10.18;4.40;;;13.40;99.90;;;;;;5053174;28;243958;-65
2022/08/08 04:57:50;;;;;;;12.15;4.40;;;13.40;99.90;;;;;;5003164;28;93194;-65
2022/08/08 05:00:16;;;;;;;9.95;4.00;;;13.40;99.90;;;;;;5043913;28;39896;-65
2022/08/08 05:02:42;;;;;;;8.70;3.90;;;13.40;99.90;;;;;;5008142;28;210499;-65
2022/08/08 05:05:08;;;;;;;11.10;4.28;;;13.50;99.90;;;;;;5028425;28;142474;-65
2022/08/08 05:07:34;;;;;;;11.02;4.00;;;13.60;99.90;;;;;;5006833;28;207473;-65
2022/08/08 05:10:00;;;;;;;8.63;3.33;;;13.60;99.90;;;;;;5038735;28;190178;-64
2022/08/08 05:12:26;;;;;;;10.93;4.30;;;13.70;99.90;;;;;;5010627;28;207013;-63
2022/08/08 05:14:53;;;;;;;9.77;3.78;;;13.80;99.90;;;;;;5024307;28;38169;-64
2022/08/08 05:17:19;;;;;;;8.63;3.70;;;13.90;99.90;;;;;;5010440;28;156194;-64
2022/08/08 05:19:45;;;;;;;9.35;3.80;;;14.00;99.90;;;;;;5042429;28;207569;-64
2022/08/08 05:22:11;;;;;;;8.82;3.95;;;14.10;99.90;;;;;;5004719;28;213905;-64
2022/08/08 05:24:37;;;;;;;12.27;4.00;;;14.20;99.90;;;;;;5041795;28;91830;-64
2022/08/08 05:27:04;;;;;;;11.10;3.90;;;14.30;99.90;;;;;;5006860;28;207153;-65
2022/08/08 05:29:30;;;;;;;10.65;4.30;;;14.40;99.90;;;;;;5043709;28;42657;-65
2022/08/08 05:31:57;;;;;;;9.55;4.00;;;14.50;99.90;;;;;;5004101;28;210135;-65
2022/08/08 05:34:47;;;;;;;12.45;4.50;;;14.50;99.90;;;;;;5043105;28;223384;-64
2022/08/08 05:37:29;;;;;;;12.27;4.22;;;14.60;99.90;;;;;;4998658;28;207266;-64
2022/08/08 05:39:55;;;;;;;11.77;4.30;;;14.70;99.90;;;;;;5040963;28;98324;-64
2022/08/08 05:42:39;;;;;;;11.32;4.38;;;14.80;99.90;;;;;;5019738;28;117509;-65
2022/08/08 05:45:07;;;;;;;11.18;4.28;;;14.90;99.90;;;;;;5040461;28;173125;-64
2022/08/08 05:47:37;;;;;;;11.48;4.00;;;14.90;99.90;;;;;;5017420;28;206538;-65
2022/08/08 05:50:06;;;;;;;9.98;3.88;;;15.10;99.90;;;;;;5038444;28;172012;-64
2022/08/08 05:52:34;;;;;;;10.73;3.50;;;15.20;99.90;;;;;;5042200;28;206166;-64
2022/08/08 05:55:05;;;;;;;12.23;4.13;;;15.40;99.90;;;;;;5027400;28;28467;-64
2022/08/08 05:57:34;;;;;;;10.10;3.90;;;15.60;99.90;;;;;;4990700;28;205907;-64
2022/08/08 06:00:06;;;;;;;12.05;4.15;;;15.80;99.90;;;;;;5057072;28;134289;-64
2022/08/08 06:05:20;;;;;;;9.00;3.33;;;16.00;99.90;;;;;;5038850;28;192689;-63
2022/08/08 06:07:48;;;;;;;9.07;3.70;;;16.20;99.90;;;;;;5028564;28;139904;-65
2022/08/08 06:10:15;;;;;;;11.68;4.18;;;16.30;99.90;;;;;;5042488;28;62111;-65
2022/08/08 06:12:43;;;;;;;11.23;3.78;;;16.50;99.90;;;;;;5008277;28;210086;-64
2022/08/08 06:15:10;;;;;;;13.65;3.85;;;16.60;99.90;;;;;;5061083;28;20044;-66
2022/08/08 06:17:39;;;;;;;8.73;3.20;;;16.70;99.90;;;;;;5005934;28;215860;-65
2022/08/08 06:20:11;;;;;;;9.65;3.42;;;16.80;99.90;;;;;;5068245;28;178647;-66
2022/08/08 06:22:38;;;;;;;9.70;3.10;;;16.90;99.90;;;;;;5008556;28;210060;-65
2022/08/08 06:25:05;;;;;;;10.13;3.15;;;16.90;99.90;;;;;;5055062;28;60842;-64
2022/08/08 06:27:56;;;;;;;10.27;3.40;;;16.90;99.90;;;;;;5032638;28;214135;-66
2022/08/08 06:30:22;;;;;;;;;;;17.00;99.90;;;;;;5055123;28;139383;-66
2022/08/08 06:32:55;;;;;;;10.25;3.10;;;17.00;99.90;;;;;;5030259;28;114548;-65
2022/08/08 06:35:22;;;;;;;10.93;3.10;;;17.10;99.90;;;;;;5038864;28;140750;-66
2022/08/08 06:37:56;;;;;;;11.10;3.17;;;17.10;99.90;;;;;;5008335;28;205193;-65
2022/08/08 06:40:25;;;;;;;10.70;3.40;;;17.20;99.90;;;;;;5055331;28;130081;-66
2022/08/08 06:42:54;;;;;;;9.18;2.97;;;17.30;99.90;;;;;;5004143;28;210334;-66
2022/08/08 06:45:21;;;;;;;10.70;2.78;;;17.40;99.90;;;;;;5040473;28;69977;-66
2022/08/08 06:47:49;;;;;;;11.13;3.10;;;17.50;99.90;;;;;;5002360;28;212720;-65
2022/08/08 06:50:15;;;;;;;11.90;3.42;;;17.50;99.90;;;;;;5038434;28;175447;-66
2022/08/08 06:52:42;;;;;;;12.65;3.55;;;17.50;99.90;;;;;;5006571;28;206995;-66
2022/08/08 06:55:08;;;;;;;12.18;3.17;;;17.50;99.90;;;;;;5035744;28;245419;-65
2022/08/08 06:57:35;;;;;;;10.60;2.78;;;17.50;99.90;;;;;;5010727;28;157842;-65
2022/08/08 07:00:05;;;;;;;11.45;3.22;;;17.50;99.90;;;;;;5041156;28;59602;-66
2022/08/08 07:02:33;;;;;;;12.25;2.92;;;17.60;99.90;;;;;;5012040;28;205796;-66
2022/08/08 07:05:06;;;;;;;12.00;3.22;;;17.80;99.90;;;;;;5006708;28;251860;-66
2022/08/08 07:08:21;;;;;;;11.35;3.00;;;17.90;99.90;;;;;;5020770;28;206233;-66
2022/08/08 07:10:50;;;;;;;11.98;3.50;;;18.00;99.90;;;;;;4894150;28;207441;-66
2022/08/08 07:13:18;;;;;;;12.43;2.83;;;18.10;99.90;;;;;;4936333;28;229964;-67
2022/08/08 07:15:58;;;;;;;10.00;3.05;;;18.20;99.90;;;;;;4892341;28;206669;-66
2022/08/08 07:19:15;;;;;;;10.45;2.88;;;18.60;99.90;;;;;;4925025;28;178106;-65
2022/08/08 07:21:55;;;;;;;9.95;2.50;;;18.80;99.90;;;;;;4862901;29;126034;-66
2022/08/08 07:24:43;;;;;;;11.38;2.80;;;19.30;99.90;;;;;;4896454;29;138122;-66
2022/08/08 07:27:11;;;;;;;9.70;2.55;;;19.60;99.90;;;;;;4888070;29;207664;-66
2022/08/08 07:29:38;;;;;;;11.50;2.60;;;20.10;99.90;;;;;;4906225;29;211623;-66
2022/08/08 07:32:06;;;;;;;12.50;2.42;;;20.40;99.90;;;;;;4884861;29;206227;-66
2022/08/08 07:34:34;;;;;;;11.45;2.42;;;20.60;99.90;;;;;;4898416;29;210773;-66
2022/08/08 07:37:03;;;;;;;11.63;2.20;;;20.50;99.90;;;;;;4877803;29;206617;-66
2022/08/08 07:39:30;;;;;;;12.18;2.53;;;20.40;99.90;;;;;;4909074;29;252560;-66
2022/08/08 07:41:58;;;;;;;10.77;2.17;;;20.50;99.90;;;;;;4874421;29;206535;-67
2022/08/08 07:44:25;;;;;;;11.77;2.47;;;20.60;99.90;;;;;;4899734;29;214103;-66
2022/08/08 07:46:51;;;;;;;9.80;2.20;;;20.90;99.90;;;;;;4900887;28;152616;-67
2022/08/08 07:49:17;;;;;;;10.88;2.08;;;21.20;99.90;;;;;;5003404;28;31192;-67
2022/08/08 07:51:44;;;;;;;8.52;1.92;;;21.50;99.90;;;;;;4944542;28;205987;-67
2022/08/08 07:54:20;;;;;;;9.95;1.83;;;21.80;99.90;;;;;;4981448;28;174602;-67
2022/08/08 07:57:20;;;;;;;10.68;1.80;;;22.10;99.90;;;;;;4961834;28;209914;-67
2022/08/08 08:00:03;;;;;;;7.70;1.58;;;22.50;99.90;;;;;;5043404;28;46614;-67
2022/08/08 08:02:39;;;;;;;10.45;1.70;;;23.00;99.90;;;;;;5022266;28;208984;-67
2022/08/08 08:05:23;;;;;;;8.75;1.60;;;23.20;99.90;;;;;;5030249;28;116235;-67
2022/08/08 08:07:55;;;;;;;7.90;1.50;;;23.30;99.90;;;;;;5009174;28;207615;-67
2022/08/08 08:10:26;;;;;;;8.93;1.30;;;23.70;99.90;;;;;;5061809;28;42289;-67
2022/08/08 08:13:19;;;;;;;6.68;1.30;;;23.80;99.70;;;;;;5027768;28;156207;-65
2022/08/08 08:15:53;;;;;;;8.47;1.50;;;23.80;99.00;;;;;;5022311;28;211471;-67
2022/08/08 08:18:22;;;;;;;8.30;1.30;;;23.40;98.20;;;;;;5034420;28;260941;-67
2022/08/08 08:20:51;;;;;;;8.05;1.60;;;23.30;98.60;;;;;;5021885;28;213689;-67
2022/08/08 08:23:17;;;;;;;8.27;1.27;;;23.30;98.40;;;;;;5038636;28;258528;-67
2022/08/08 08:25:43;;;;;;;9.50;1.58;;;23.60;98.20;;;;;;5002818;28;214235;-67
2022/08/08 08:28:10;;;;;;;8.40;1.38;;;23.70;97.80;;;;;;5069964;28;20540;-68
2022/08/08 08:30:37;;;;;;;10.35;1.48;;;23.70;97.20;;;;;;5029677;28;214034;-67
2022/08/08 08:33:04;;;;;;;8.43;1.45;;;23.80;97.50;;;;;;5026849;28;152441;-67
2022/08/08 08:35:30;;;;;;;7.88;1.40;;;23.70;97.20;;;;;;5042857;28;69095;-67
2022/08/08 08:37:56;;;;;;;8.15;1.50;;;23.60;97.00;;;;;;5026305;28;183867;-68
2022/08/08 08:40:23;;;;;;;9.05;1.30;;;23.40;96.90;;;;;;5068129;28;256765;-67
2022/08/08 08:42:50;;;;;;;8.90;1.30;;;23.20;97.10;;;;;;5009654;28;210977;-67
2022/08/08 08:45:17;;;;;;;7.80;1.20;;;23.00;97.10;;;;;;5044590;28;45636;-67
2022/08/08 08:47:44;;;;;;;6.45;1.33;;;22.80;97.10;;;;;;5023084;28;215557;-67
2022/08/08 08:50:10;;;;;;;6.15;1.30;;;22.60;97.20;;;;;;5044962;28;26563;-67
2022/08/08 08:52:41;;;;;;;7.88;1.27;;;22.40;97.20;;;;;;4990879;28;209684;-67
2022/08/08 08:55:12;;;;;;;9.23;1.48;;;22.40;97.50;;;;;;5040792;28;150308;-67
2022/08/08 08:57:42;;;;;;;6.00;1.33;;;22.40;97.60;;;;;;5011874;28;205788;-67
2022/08/08 09:00:09;;;;;;;6.82;1.20;;;22.30;97.50;;;;;;5043902;28;63277;-66
2022/08/08 09:02:37;;;;;;;9.38;1.50;;;22.40;97.70;;;;;;5038593;28;215483;-67
2022/08/08 09:05:06;;;;;;;7.10;1.13;;;23.00;97.90;;;;;;5038618;28;255747;-67
2022/08/08 09:07:34;;;;;;;7.30;1.40;;;23.80;98.50;;;;;;5031185;28;207167;-67
2022/08/08 09:10:01;;;;;;;6.97;1.30;;;24.20;97.40;;;;;;5039055;28;172705;-67
2022/08/08 09:12:28;;;;;;;7.32;1.20;;;24.40;96.50;;;;;;5028427;28;206424;-68
2022/08/08 09:14:56;;;;;;;7.18;1.10;;;23.80;95.60;;;;;;5045825;28;20062;-68
2022/08/08 09:17:26;;;;;;;6.78;1.20;;;23.40;96.20;;;;;;5004905;28;210446;-68
2022/08/08 09:19:56;;;;;;;6.72;1.20;;;23.40;96.20;;;;;;5039379;28;174394;-68
2022/08/08 09:22:23;;;;;;;7.70;1.20;;;23.40;95.60;;;;;;5025745;28;206506;-68
2022/08/08 09:24:50;;;;;;;7.15;1.10;;;23.20;95.80;;;;;;5022343;28;99211;-67
2022/08/08 09:27:18;;;;;;;6.65;1.10;;;23.30;95.90;;;;;;5037019;28;219442;-67
2022/08/08 09:29:57;;;;;;;6.90;1.13;;;23.30;94.70;;;;;;5040580;28;149997;-66
2022/08/08 09:32:38;;;;;;;6.68;1.10;;;23.30;94.50;;;;;;5013626;28;207618;-67
2022/08/08 09:35:08;;;;;;;;;;;23.40;94.20;;;;;;5056169;28;256224;-67
2022/08/08 09:37:46;;;;;;;5.20;1.10;;;23.40;92.90;;;;;;5008856;28;206795;-67
2022/08/08 09:40:15;;;;;;;6.65;1.17;;;23.20;94.60;;;;;;5061003;28;20048;-67
2022/08/08 09:42:44;;;;;;;8.18;1.27;;;23.30;94.70;;;;;;5006925;28;206965;-67
2022/08/08 09:45:16;;;;;;;6.20;1.00;;;23.30;94.30;;;;;;5024288;28;149009;-67
2022/08/08 09:47:43;;;;;;;6.03;1.00;;;23.10;94.30;;;;;;5008496;28;208194;-67
2022/08/08 09:50:12;;;;;;;6.70;1.25;;;23.00;94.50;;;;;;5044845;28;35444;-66
2022/08/08 09:52:42;;;;;;;7.25;1.00;;;22.80;94.10;;;;;;5015697;28;151770;-66
2022/08/08 09:55:09;;;;;;;5.35;0.90;;;22.60;94.50;;;;;;5037986;28;203507;-66
2022/08/08 09:57:37;;;;;;;5.13;0.98;;;22.60;94.50;;;;;;5010882;28;209263;-66
2022/08/08 10:00:09;;;;;;;6.03;1.10;;;22.60;94.20;;;;;;5036340;28;238016;-67
2022/08/08 10:02:38;;;;;;;4.45;0.90;;;22.50;94.40;;;;;;4991438;28;213814;-66
2022/08/08 10:05:26;;;;;;;5.70;1.05;;;22.20;94.60;;;;;;5015015;28;119647;-65
2022/08/08 10:07:52;;;;;;;6.28;1.25;;;22.20;95.10;;;;;;4985069;28;213262;-66
2022/08/08 10:10:31;;;;;;;7.43;1.27;;;22.10;95.10;;;;;;5066423;28;257686;-66
2022/08/08 10:12:58;;;;;;;6.38;1.27;;;21.90;95.40;;;;;;5019317;28;206300;-67
2022/08/08 10:15:27;;;;;;;5.10;1.08;;;21.80;95.80;;;;;;5024541;28;64760;-66
2022/08/08 10:17:55;;;;;;;5.88;1.00;;;21.80;95.90;;;;;;5024415;28;158840;-66
2022/08/08 10:20:28;;;;;;;7.57;1.30;;;21.80;95.80;;;;;;5035006;28;235709;-66
2022/08/08 10:22:59;;;;;;;6.88;1.30;;;21.90;95.70;;;;;;5025157;28;203585;-66
2022/08/08 10:25:25;;;;;;;;;;;21.90;95.60;;;;;;5042809;28;39592;-66
2022/08/08 10:27:53;;;;;;;5.45;0.90;;;22.00;95.50;;;;;;5007361;28;212818;-66
2022/08/08 10:30:23;;;;;;;6.97;1.10;;;22.00;95.50;;;;;;5057269;28;96059;-66
2022/08/08 10:32:55;;;;;;;9.50;1.60;;;22.20;95.20;;;;;;5017562;28;209634;-66
2022/08/08 10:35:31;;;;;;;4.75;0.95;;;22.30;95.00;;;;;;5041170;28;44962;-67
2022/08/08 10:38:03;;;;;;;4.85;0.95;;;22.40;94.40;;;;;;5003025;28;211103;-67
2022/08/08 10:40:30;;;;;;;4.65;0.90;;;22.60;93.90;;;;;;5050841;28;208336;-67
2022/08/08 10:42:59;;;;;;;6.00;1.15;;;22.70;92.50;;;;;;5009710;28;194449;-67
2022/08/08 10:45:26;;;;;;;5.53;0.82;;;22.90;93.30;;;;;;5038998;28;117746;-66
2022/08/08 10:47:58;;;;;;;6.30;1.00;;;23.20;93.20;;;;;;5005342;28;207440;-67
2022/08/08 10:50:36;;;;;;;5.28;1.00;;;23.30;93.00;;;;;;5036585;28;173282;-67
2022/08/08 10:53:08;;;;;;;5.70;1.02;;;23.40;93.20;;;;;;5008565;28;206946;-67
2022/08/08 10:55:39;;;;;;;4.82;0.90;;;23.70;93.30;;;;;;5037345;28;131855;-67
2022/08/08 10:58:07;;;;;;;4.85;1.40;;;23.70;93.60;;;;;;4996487;28;131574;-67
2022/08/08 11:00:34;;;;;;;5.47;1.10;;;23.80;93.80;;;;;;5054508;28;74360;-67
2022/08/08 11:03:14;;;;;;;6.40;0.98;;;23.80;94.20;;;;;;4998467;28;114579;-67
2022/08/08 11:05:50;;;;;;;6.63;1.13;;;23.90;94.00;;;;;;4993355;28;238832;-66
2022/08/08 11:08:27;;;;;;;6.35;1.20;;;24.00;94.20;;;;;;5039003;28;274414;-67
2022/08/08 11:11:10;;;;;;;6.38;1.10;;;24.00;94.00;;;;;;5022987;28;210897;-66
2022/08/08 11:13:45;;;;;;;6.68;1.30;;;23.90;94.60;;;;;;5049786;28;261408;-67
2022/08/08 11:16:22;;;;;;;7.05;1.10;;;24.10;94.50;;;;;;5025358;28;209301;-67
2022/08/08 11:18:53;;;;;;;6.85;1.25;;;24.20;94.20;;;;;;5037121;28;180030;-67
2022/08/08 11:21:20;;;;;;;7.05;1.00;;;24.30;94.20;;;;;;5020515;28;207399;-67
2022/08/08 11:23:48;;;;;;;7.38;1.30;;;24.40;94.20;;;;;;5026816;28;190594;-68
2022/08/08 11:26:16;;;;;;;6.78;1.10;;;24.60;93.60;;;;;;5003165;28;209910;-68
2022/08/08 11:28:44;;;;;;;7.63;1.10;;;24.20;92.90;;;;;;5038041;28;142983;-67
2022/08/08 11:31:15;;;;;;;6.03;1.20;;;24.30;93.00;;;;;;5006812;28;215113;-67
2022/08/08 11:33:48;;;;;;;6.05;1.02;;;24.50;92.70;;;;;;5051808;28;129040;-67
2022/08/08 11:36:14;;;;;;;4.75;1.00;;;24.70;93.00;;;;;;5017243;28;206526;-66
2022/08/08 11:38:51;;;;;;;6.63;1.30;;;24.90;93.20;;;;;;5042683;28;188604;-67
2022/08/08 11:41:18;;;;;;;8.73;1.30;;;25.10;93.20;;;;;;5005948;28;206179;-67
2022/08/08 11:43:46;;;;;;;6.60;1.10;;;25.20;93.20;;;;;;5035464;28;206422;-66
2022/08/08 11:46:13;;;;;;;9.20;1.20;;;24.90;92.80;;;;;;5034297;28;210949;-67
2022/08/08 11:48:40;;;;;;;8.07;1.20;;;25.00;93.10;;;;;;5049218;28;276812;-67
2022/08/08 11:51:08;;;;;;;7.65;1.35;;;25.00;93.10;;;;;;5007686;28;207168;-67
2022/08/08 11:53:35;;;;;;;8.45;1.27;;;25.00;92.80;;;;;;5048974;28;271874;-67
2022/08/08 11:56:01;;;;;;;6.90;1.25;;;24.80;93.00;;;;;;5006658;28;210390;-67
2022/08/08 11:58:34;;;;;;;7.68;1.20;;;24.80;92.80;;;;;;5031664;28;262813;-67
2022/08/08 12:01:04;;;;;;;5.22;1.00;;;24.50;93.70;;;;;;5023787;28;205704;-66
2022/08/08 12:03:32;;;;;;;;;;;24.30;93.60;;;;;;5019672;28;264113;-68
2022/08/08 12:06:09;;;;;;;7.68;1.20;;;24.10;93.40;;;;;;5004045;28;212556;-67
2022/08/08 12:08:36;;;;;;;5.80;1.05;;;24.00;93.90;;;;;;5032839;28;257058;-67
2022/08/08 12:11:12;;;;;;;5.70;1.20;;;24.10;94.00;;;;;;5000582;28;210317;-68
2022/08/08 12:13:39;;;;;;;5.88;1.00;;;24.20;93.80;;;;;;5032815;28;266471;-68
2022/08/08 12:16:12;;;;;;;7.68;1.20;;;24.20;93.90;;;;;;5010347;28;212089;-67
2022/08/08 12:18:50;;;;;;;9.30;1.10;;;24.30;93.60;;;;;;5032821;28;274093;-68
2022/08/08 12:21:26;;;;;;;5.88;1.10;;;24.00;93.70;;;;;;5026189;28;181366;-68
2022/08/08 12:24:04;;;;;;;7.43;1.27;;;23.90;93.80;;;;;;5045165;28;146011;-67
2022/08/08 12:26:42;;;;;;;6.25;1.30;;;23.70;94.20;;;;;;5032041;28;212672;-68
2022/08/08 12:29:32;;;;;;;8.30;1.13;;;23.70;94.60;;;;;;5051010;28;241052;-67
2022/08/08 12:32:03;;;;;;;6.00;1.10;;;23.80;94.30;;;;;;5031266;28;213563;-68
2022/08/08 12:34:43;;;;;;;;;;;23.70;94.30;;;;;;5056982;28;74559;-68
2022/08/08 12:37:17;;;;;;;9.77;1.53;;;23.70;94.10;;;;;;5005755;28;209831;-67
2022/08/08 12:39:43;;;;;;;6.82;1.20;;;23.70;94.00;;;;;;5036895;28;168542;-68
2022/08/08 12:42:09;;;;;;;7.28;1.00;;;23.60;93.60;;;;;;5006666;28;211045;-67
2022/08/08 12:44:36;;;;;;;7.95;1.17;;;23.60;93.80;;;;;;5043665;28;26273;-67
2022/08/08 12:47:04;;;;;;;5.93;1.02;;;23.60;93.90;;;;;;5011917;28;207314;-67
2022/08/08 12:49:34;;;;;;;6.53;1.20;;;23.70;94.00;;;;;;5065927;28;269940;-67
2022/08/08 12:52:01;;;;;;;4.72;1.00;;;24.00;93.80;;;;;;4994330;28;212928;-68
2022/08/08 12:54:32;;;;;;;9.00;1.20;;;24.00;93.00;;;;;;5034920;28;185631;-66
2022/08/08 12:56:59;;;;;;;7.38;1.20;;;24.10;93.40;;;;;;5007532;28;204553;-67
2022/08/08 12:59:29;;;;;;;7.13;1.10;;;24.20;93.40;;;;;;5042114;28;107998;-68
2022/08/08 13:01:58;;;;;;;7.85;1.25;;;24.30;93.40;;;;;;5005627;28;209685;-67
2022/08/08 13:04:33;;;;;;;6.53;1.00;;;24.30;93.10;;;;;;5026718;28;198877;-67
2022/08/08 13:07:07;;;;;;;6.55;1.20;;;24.30;92.70;;;;;;5010746;28;209780;-67
2022/08/08 13:09:37;;;;;;;4.88;0.90;;;24.10;92.80;;;;;;5022735;28;89479;-67
2022/08/08 13:12:15;;;;;;;7.20;1.00;;;24.00;92.60;;;;;;5010323;28;163456;-66
2022/08/08 13:14:49;;;;;;;5.80;1.20;;;23.80;92.80;;;;;;5064887;28;267974;-67
2022/08/08 13:17:17;;;;;;;5.82;1.10;;;23.70;92.90;;;;;;5006622;28;203818;-66
2022/08/08 13:19:45;;;;;;;6.18;1.20;;;23.70;93.10;;;;;;5045205;28;20052;-67